Terminal Aerodrome Forecast
Issued by NWS

Home | Current Version | Previous Version | Text Only | Print | Product List | Glossary On
Versions: 1 2 3 4 5 6 7 8 9 10 11 12 13 14 15 16 17 18
000
FTUS43 KICT 010800 AAB
TAFRSL
TAF AMD
KRSL 010816Z 0108/0206 VRB03KT 3SM BR SCT002
      TEMPO 0108/0112 1/2SM FG BKN002
     FM011200 18008KT 5SM BR BKN002
      TEMPO 0112/0114 2SM BR SCT002
     FM011600 03006KT P6SM SCT002 SCT060=

USA.gov is the U.S. government's official web portal to all federal, state and local government web resources and services.